sensor_id;sensor_type;location;lat;lon;timestamp;P1;durP1;ratioP1;P2;durP2;ratioP2
68140;SDS011;54941;52.220;104.306;2022-11-15T00:02:23;14.88;;;7.25;;
68140;SDS011;54941;52.220;104.306;2022-11-15T00:04:50;16.95;;;7.60;;
68140;SDS011;54941;52.220;104.306;2022-11-15T00:07:16;19.25;;;8.68;;
68140;SDS011;54941;52.220;104.306;2022-11-15T00:09:42;15.20;;;7.53;;
68140;SDS011;54941;52.220;104.306;2022-11-15T00:12:08;15.45;;;7.10;;
68140;SDS011;54941;52.220;104.306;2022-11-15T00:14:36;14.80;;;7.53;;
68140;SDS011;54941;52.220;104.306;2022-11-15T00:17:02;16.67;;;7.50;;
68140;SDS011;54941;52.220;104.306;2022-11-15T00:19:47;13.02;;;6.45;;
68140;SDS011;54941;52.220;104.306;2022-11-15T00:22:13;15.20;;;6.93;;
68140;SDS011;54941;52.220;104.306;2022-11-15T00:24:40;15.10;;;7.50;;
68140;SDS011;54941;52.220;104.306;2022-11-15T00:27:06;14.95;;;7.45;;
68140;SDS011;54941;52.220;104.306;2022-11-15T00:29:32;11.60;;;6.22;;
68140;SDS011;54941;52.220;104.306;2022-11-15T00:32:00;11.75;;;5.70;;
68140;SDS011;54941;52.220;104.306;2022-11-15T00:34:26;14.30;;;6.32;;
68140;SDS011;54941;52.220;104.306;2022-11-15T00:36:53;9.38;;;5.07;;
68140;SDS011;54941;52.220;104.306;2022-11-15T00:39:19;12.20;;;5.28;;
68140;SDS011;54941;52.220;104.306;2022-11-15T00:41:45;11.10;;;4.93;;
68140;SDS011;54941;52.220;104.306;2022-11-15T00:44:11;10.35;;;4.10;;
68140;SDS011;54941;52.220;104.306;2022-11-15T00:46:38;8.18;;;4.07;;
68140;SDS011;54941;52.220;104.306;2022-11-15T00:49:06;11.57;;;4.85;;
68140;SDS011;54941;52.220;104.306;2022-11-15T00:51:32;11.40;;;5.00;;
68140;SDS011;54941;52.220;104.306;2022-11-15T00:53:58;9.57;;;4.80;;
68140;SDS011;54941;52.220;104.306;2022-11-15T00:56:25;9.52;;;4.63;;
68140;SDS011;54941;52.220;104.306;2022-11-15T00:58:52;73.97;;;30.52;;
68140;SDS011;54941;52.220;104.306;2022-11-15T01:01:18;12.60;;;6.20;;
68140;SDS011;54941;52.220;104.306;2022-11-15T01:03:45;9.63;;;4.70;;
68140;SDS011;54941;52.220;104.306;2022-11-15T01:06:13;8.10;;;4.15;;
68140;SDS011;54941;52.220;104.306;2022-11-15T01:08:39;9.05;;;4.30;;
68140;SDS011;54941;52.220;104.306;2022-11-15T01:11:07;8.95;;;4.05;;
68140;SDS011;54941;52.220;104.306;2022-11-15T01:13:35;9.02;;;3.75;;
68140;SDS011;54941;52.220;104.306;2022-11-15T01:16:06;9.35;;;4.32;;
68140;SDS011;54941;52.220;104.306;2022-11-15T01:18:34;8.02;;;4.03;;
68140;SDS011;54941;52.220;104.306;2022-11-15T01:21:04;9.88;;;5.25;;
68140;SDS011;54941;52.220;104.306;2022-11-15T01:23:32;8.52;;;3.92;;
68140;SDS011;54941;52.220;104.306;2022-11-15T01:25:59;9.52;;;4.43;;
68140;SDS011;54941;52.220;104.306;2022-11-15T01:28:29;6.88;;;3.47;;
68140;SDS011;54941;52.220;104.306;2022-11-15T01:30:57;7.22;;;3.22;;
68140;SDS011;54941;52.220;104.306;2022-11-15T01:33:23;8.23;;;3.85;;
68140;SDS011;54941;52.220;104.306;2022-11-15T01:35:50;15.20;;;7.70;;
68140;SDS011;54941;52.220;104.306;2022-11-15T01:38:16;12.70;;;5.47;;
68140;SDS011;54941;52.220;104.306;2022-11-15T01:40:44;8.70;;;4.25;;
68140;SDS011;54941;52.220;104.306;2022-11-15T01:43:21;7.82;;;3.53;;
68140;SDS011;54941;52.220;104.306;2022-11-15T01:45:50;7.90;;;3.40;;
68140;SDS011;54941;52.220;104.306;2022-11-15T01:48:22;9.70;;;3.92;;
68140;SDS011;54941;52.220;104.306;2022-11-15T01:50:51;9.48;;;3.63;;
68140;SDS011;54941;52.220;104.306;2022-11-15T01:53:18;6.70;;;3.42;;
68140;SDS011;54941;52.220;104.306;2022-11-15T01:55:50;7.93;;;3.88;;
68140;SDS011;54941;52.220;104.306;2022-11-15T01:58:17;8.45;;;4.50;;
68140;SDS011;54941;52.220;104.306;2022-11-15T02:00:44;11.30;;;5.43;;
68140;SDS011;54941;52.220;104.306;2022-11-15T02:03:10;7.70;;;3.97;;
68140;SDS011;54941;52.220;104.306;2022-11-15T02:05:37;6.28;;;3.38;;
68140;SDS011;54941;52.220;104.306;2022-11-15T02:08:03;8.82;;;3.53;;
68140;SDS011;54941;52.220;104.306;2022-11-15T02:10:31;21.02;;;7.85;;
68140;SDS011;54941;52.220;104.306;2022-11-15T02:12:59;28.10;;;12.70;;
68140;SDS011;54941;52.220;104.306;2022-11-15T02:15:29;11.85;;;5.63;;
68140;SDS011;54941;52.220;104.306;2022-11-15T02:18:06;15.88;;;8.00;;
68140;SDS011;54941;52.220;104.306;2022-11-15T02:20:41;24.75;;;11.75;;
68140;SDS011;54941;52.220;104.306;2022-11-15T02:23:30;17.92;;;7.20;;
68140;SDS011;54941;52.220;104.306;2022-11-15T02:26:25;10.02;;;5.22;;
68140;SDS011;54941;52.220;104.306;2022-11-15T02:29:18;8.30;;;4.80;;
68140;SDS011;54941;52.220;104.306;2022-11-15T02:31:55;8.70;;;4.82;;
68140;SDS011;54941;52.220;104.306;2022-11-15T02:34:30;9.85;;;4.75;;
68140;SDS011;54941;52.220;104.306;2022-11-15T02:37:09;8.60;;;4.43;;
68140;SDS011;54941;52.220;104.306;2022-11-15T02:39:41;7.88;;;4.63;;
68140;SDS011;54941;52.220;104.306;2022-11-15T02:42:15;6.72;;;3.67;;
68140;SDS011;54941;52.220;104.306;2022-11-15T02:44:45;8.43;;;4.78;;
68140;SDS011;54941;52.220;104.306;2022-11-15T02:47:14;10.45;;;5.18;;
68140;SDS011;54941;52.220;104.306;2022-11-15T02:49:43;9.65;;;5.20;;
68140;SDS011;54941;52.220;104.306;2022-11-15T02:52:14;10.20;;;5.05;;
68140;SDS011;54941;52.220;104.306;2022-11-15T02:54:41;9.30;;;4.93;;
68140;SDS011;54941;52.220;104.306;2022-11-15T02:57:10;15.00;;;8.30;;
68140;SDS011;54941;52.220;104.306;2022-11-15T03:02:35;15.40;;;9.00;;
68140;SDS011;54941;52.220;104.306;2022-11-15T03:05:10;18.95;;;10.38;;
68140;SDS011;54941;52.220;104.306;2022-11-15T03:07:46;18.95;;;12.27;;
68140;SDS011;54941;52.220;104.306;2022-11-15T03:10:20;16.38;;;11.48;;
68140;SDS011;54941;52.220;104.306;2022-11-15T03:12:54;19.48;;;11.98;;
68140;SDS011;54941;52.220;104.306;2022-11-15T03:15:23;10.05;;;6.70;;
68140;SDS011;54941;52.220;104.306;2022-11-15T03:17:57;18.80;;;11.95;;
68140;SDS011;54941;52.220;104.306;2022-11-15T03:20:26;19.48;;;12.00;;
68140;SDS011;54941;52.220;104.306;2022-11-15T03:22:55;16.33;;;10.57;;
68140;SDS011;54941;52.220;104.306;2022-11-15T03:25:25;7.70;;;4.50;;
68140;SDS011;54941;52.220;104.306;2022-11-15T03:27:55;5.35;;;2.30;;
68140;SDS011;54941;52.220;104.306;2022-11-15T03:30:24;6.20;;;3.03;;
68140;SDS011;54941;52.220;104.306;2022-11-15T03:32:51;7.60;;;3.60;;
68140;SDS011;54941;52.220;104.306;2022-11-15T03:35:23;5.70;;;2.50;;
68140;SDS011;54941;52.220;104.306;2022-11-15T03:37:54;7.45;;;3.45;;
68140;SDS011;54941;52.220;104.306;2022-11-15T03:40:25;6.53;;;2.88;;
68140;SDS011;54941;52.220;104.306;2022-11-15T03:42:57;6.03;;;3.05;;
68140;SDS011;54941;52.220;104.306;2022-11-15T03:45:31;17.40;;;8.40;;
68140;SDS011;54941;52.220;104.306;2022-11-15T03:48:02;9.05;;;3.85;;
68140;SDS011;54941;52.220;104.306;2022-11-15T03:50:34;6.38;;;3.00;;
68140;SDS011;54941;52.220;104.306;2022-11-15T03:53:00;7.82;;;3.90;;
68140;SDS011;54941;52.220;104.306;2022-11-15T03:55:27;7.22;;;4.10;;
68140;SDS011;54941;52.220;104.306;2022-11-15T03:57:54;6.80;;;3.88;;
68140;SDS011;54941;52.220;104.306;2022-11-15T04:00:23;6.15;;;3.72;;
68140;SDS011;54941;52.220;104.306;2022-11-15T04:02:49;6.90;;;3.67;;
68140;SDS011;54941;52.220;104.306;2022-11-15T04:16:52;3.50;;;1.30;;
68140;SDS011;54941;52.220;104.306;2022-11-15T04:19:18;2.47;;;1.17;;
68140;SDS011;54941;52.220;104.306;2022-11-15T04:22:03;3.13;;;1.42;;
68140;SDS011;54941;52.220;104.306;2022-11-15T04:24:49;17.30;;;7.45;;
68140;SDS011;54941;52.220;104.306;2022-11-15T04:27:15;4.20;;;1.90;;
68140;SDS011;54941;52.220;104.306;2022-11-15T04:38:51;3.15;;;1.25;;
68140;SDS011;54941;52.220;104.306;2022-11-15T04:41:19;3.38;;;1.40;;
68140;SDS011;54941;52.220;104.306;2022-11-15T04:43:45;3.10;;;1.52;;
68140;SDS011;54941;52.220;104.306;2022-11-15T04:46:11;3.97;;;1.50;;
68140;SDS011;54941;52.220;104.306;2022-11-15T04:48:38;3.08;;;1.38;;
68140;SDS011;54941;52.220;104.306;2022-11-15T04:51:04;3.97;;;1.58;;
68140;SDS011;54941;52.220;104.306;2022-11-15T04:53:30;14.10;;;6.05;;
68140;SDS011;54941;52.220;104.306;2022-11-15T04:55:57;6.65;;;2.83;;
68140;SDS011;54941;52.220;104.306;2022-11-15T04:58:24;4.88;;;2.10;;
68140;SDS011;54941;52.220;104.306;2022-11-15T05:00:51;3.70;;;1.67;;
68140;SDS011;54941;52.220;104.306;2022-11-15T05:03:17;3.22;;;1.60;;
68140;SDS011;54941;52.220;104.306;2022-11-15T05:05:43;3.75;;;1.98;;
68140;SDS011;54941;52.220;104.306;2022-11-15T05:08:10;7.68;;;3.63;;
68140;SDS011;54941;52.220;104.306;2022-11-15T05:10:36;7.20;;;2.70;;
68140;SDS011;54941;52.220;104.306;2022-11-15T05:13:02;4.20;;;1.75;;
68140;SDS011;54941;52.220;104.306;2022-11-15T05:15:30;3.33;;;1.60;;
68140;SDS011;54941;52.220;104.306;2022-11-15T05:17:57;3.60;;;1.40;;
68140;SDS011;54941;52.220;104.306;2022-11-15T05:20:23;4.20;;;2.00;;
68140;SDS011;54941;52.220;104.306;2022-11-15T05:22:50;2.63;;;1.10;;
68140;SDS011;54941;52.220;104.306;2022-11-15T05:25:16;1.90;;;1.00;;
68140;SDS011;54941;52.220;104.306;2022-11-15T05:27:43;2.92;;;1.50;;
68140;SDS011;54941;52.220;104.306;2022-11-15T05:30:09;2.85;;;1.10;;
68140;SDS011;54941;52.220;104.306;2022-11-15T05:32:37;2.38;;;1.17;;
68140;SDS011;54941;52.220;104.306;2022-11-15T05:35:04;2.40;;;1.00;;
68140;SDS011;54941;52.220;104.306;2022-11-15T05:37:34;2.15;;;1.20;;
68140;SDS011;54941;52.220;104.306;2022-11-15T05:40:00;2.75;;;1.08;;
68140;SDS011;54941;52.220;104.306;2022-11-15T05:42:26;3.05;;;1.00;;
68140;SDS011;54941;52.220;104.306;2022-11-15T05:44:55;2.63;;;0.90;;
68140;SDS011;54941;52.220;104.306;2022-11-15T05:47:23;2.15;;;1.00;;
68140;SDS011;54941;52.220;104.306;2022-11-15T05:49:54;2.50;;;0.90;;
68140;SDS011;54941;52.220;104.306;2022-11-15T05:52:22;2.20;;;1.10;;
68140;SDS011;54941;52.220;104.306;2022-11-15T05:54:51;1.98;;;1.02;;
68140;SDS011;54941;52.220;104.306;2022-11-15T05:57:18;2.63;;;0.90;;
68140;SDS011;54941;52.220;104.306;2022-11-15T05:59:45;2.00;;;0.73;;
68140;SDS011;54941;52.220;104.306;2022-11-15T06:02:11;2.05;;;0.80;;
68140;SDS011;54941;52.220;104.306;2022-11-15T06:04:38;2.15;;;0.82;;
68140;SDS011;54941;52.220;104.306;2022-11-15T06:07:05;2.38;;;1.00;;
68140;SDS011;54941;52.220;104.306;2022-11-15T06:09:32;3.67;;;1.25;;
68140;SDS011;54941;52.220;104.306;2022-11-15T06:11:58;2.40;;;1.00;;
68140;SDS011;54941;52.220;104.306;2022-11-15T06:14:24;2.30;;;0.90;;
68140;SDS011;54941;52.220;104.306;2022-11-15T06:16:51;2.55;;;0.90;;
68140;SDS011;54941;52.220;104.306;2022-11-15T06:19:17;1.98;;;0.70;;
68140;SDS011;54941;52.220;104.306;2022-11-15T06:21:43;10.63;;;4.82;;
68140;SDS011;54941;52.220;104.306;2022-11-15T06:24:11;3.70;;;1.45;;
68140;SDS011;54941;52.220;104.306;2022-11-15T06:26:38;2.72;;;0.90;;
68140;SDS011;54941;52.220;104.306;2022-11-15T06:29:04;3.17;;;1.42;;
68140;SDS011;54941;52.220;104.306;2022-11-15T06:31:30;2.97;;;1.08;;
68140;SDS011;54941;52.220;104.306;2022-11-15T06:33:57;3.63;;;1.23;;
68140;SDS011;54941;52.220;104.306;2022-11-15T06:36:23;3.35;;;1.50;;
68140;SDS011;54941;52.220;104.306;2022-11-15T06:38:49;4.75;;;1.92;;
68140;SDS011;54941;52.220;104.306;2022-11-15T06:41:17;3.15;;;1.60;;
68140;SDS011;54941;52.220;104.306;2022-11-15T06:43:44;4.47;;;1.75;;
68140;SDS011;54941;52.220;104.306;2022-11-15T06:46:10;3.08;;;1.13;;
68140;SDS011;54941;52.220;104.306;2022-11-15T06:48:36;5.90;;;1.90;;
68140;SDS011;54941;52.220;104.306;2022-11-15T06:51:03;6.30;;;2.08;;
68140;SDS011;54941;52.220;104.306;2022-11-15T06:53:30;7.60;;;2.92;;
68140;SDS011;54941;52.220;104.306;2022-11-15T06:55:58;3.78;;;1.70;;
68140;SDS011;54941;52.220;104.306;2022-11-15T06:58:26;2.85;;;0.90;;
68140;SDS011;54941;52.220;104.306;2022-11-15T07:00:53;1.92;;;0.90;;
68140;SDS011;54941;52.220;104.306;2022-11-15T07:03:19;2.55;;;1.10;;
68140;SDS011;54941;52.220;104.306;2022-11-15T07:05:50;4.70;;;1.73;;
68140;SDS011;54941;52.220;104.306;2022-11-15T07:08:17;3.10;;;0.90;;
68140;SDS011;54941;52.220;104.306;2022-11-15T07:10:44;2.50;;;0.90;;
68140;SDS011;54941;52.220;104.306;2022-11-15T07:13:10;1.90;;;0.60;;
68140;SDS011;54941;52.220;104.306;2022-11-15T07:15:38;2.40;;;1.00;;
68140;SDS011;54941;52.220;104.306;2022-11-15T07:18:04;2.80;;;1.10;;
68140;SDS011;54941;52.220;104.306;2022-11-15T07:20:30;3.08;;;1.35;;
68140;SDS011;54941;52.220;104.306;2022-11-15T07:22:59;3.92;;;1.90;;
68140;SDS011;54941;52.220;104.306;2022-11-15T07:25:26;2.80;;;1.40;;
68140;SDS011;54941;52.220;104.306;2022-11-15T07:27:54;3.53;;;1.48;;
68140;SDS011;54941;52.220;104.306;2022-11-15T07:30:20;2.50;;;1.13;;
68140;SDS011;54941;52.220;104.306;2022-11-15T07:32:48;2.33;;;1.00;;
68140;SDS011;54941;52.220;104.306;2022-11-15T07:35:18;2.28;;;1.08;;
68140;SDS011;54941;52.220;104.306;2022-11-15T07:37:44;2.65;;;1.23;;
68140;SDS011;54941;52.220;104.306;2022-11-15T07:40:19;2.17;;;0.90;;
68140;SDS011;54941;52.220;104.306;2022-11-15T07:42:45;3.78;;;1.63;;
68140;SDS011;54941;52.220;104.306;2022-11-15T07:45:11;4.43;;;2.40;;
68140;SDS011;54941;52.220;104.306;2022-11-15T07:47:38;8.10;;;3.50;;
68140;SDS011;54941;52.220;104.306;2022-11-15T07:50:06;5.63;;;2.53;;
68140;SDS011;54941;52.220;104.306;2022-11-15T07:52:33;7.30;;;2.55;;
68140;SDS011;54941;52.220;104.306;2022-11-15T07:54:59;4.95;;;2.20;;
68140;SDS011;54941;52.220;104.306;2022-11-15T07:57:25;4.50;;;1.83;;
68140;SDS011;54941;52.220;104.306;2022-11-15T07:59:52;6.00;;;2.85;;
68140;SDS011;54941;52.220;104.306;2022-11-15T08:02:18;7.07;;;2.85;;
68140;SDS011;54941;52.220;104.306;2022-11-15T08:04:44;4.80;;;2.10;;
68140;SDS011;54941;52.220;104.306;2022-11-15T08:07:12;4.68;;;2.25;;
68140;SDS011;54941;52.220;104.306;2022-11-15T08:09:39;4.35;;;2.20;;
68140;SDS011;54941;52.220;104.306;2022-11-15T08:12:05;4.72;;;2.58;;
68140;SDS011;54941;52.220;104.306;2022-11-15T08:14:32;3.47;;;1.50;;
68140;SDS011;54941;52.220;104.306;2022-11-15T08:16:58;3.58;;;1.73;;
68140;SDS011;54941;52.220;104.306;2022-11-15T08:19:24;4.90;;;2.15;;
68140;SDS011;54941;52.220;104.306;2022-11-15T08:21:51;6.07;;;2.75;;
68140;SDS011;54941;52.220;104.306;2022-11-15T08:24:18;6.45;;;3.35;;
68140;SDS011;54941;52.220;104.306;2022-11-15T08:26:45;13.88;;;4.90;;
68140;SDS011;54941;52.220;104.306;2022-11-15T08:29:12;11.48;;;4.30;;
68140;SDS011;54941;52.220;104.306;2022-11-15T08:31:38;8.48;;;3.70;;
68140;SDS011;54941;52.220;104.306;2022-11-15T08:34:05;8.43;;;3.92;;
68140;SDS011;54941;52.220;104.306;2022-11-15T08:36:31;6.57;;;3.20;;
68140;SDS011;54941;52.220;104.306;2022-11-15T08:38:58;5.97;;;3.47;;
68140;SDS011;54941;52.220;104.306;2022-11-15T08:41:26;5.85;;;3.10;;
68140;SDS011;54941;52.220;104.306;2022-11-15T08:43:57;5.10;;;2.22;;
68140;SDS011;54941;52.220;104.306;2022-11-15T08:46:23;3.80;;;2.00;;
68140;SDS011;54941;52.220;104.306;2022-11-15T08:48:50;4.50;;;2.45;;
68140;SDS011;54941;52.220;104.306;2022-11-15T08:51:16;4.50;;;2.63;;
68140;SDS011;54941;52.220;104.306;2022-11-15T08:53:43;3.30;;;1.67;;
68140;SDS011;54941;52.220;104.306;2022-11-15T08:56:10;4.07;;;2.20;;
68140;SDS011;54941;52.220;104.306;2022-11-15T08:58:39;6.65;;;3.22;;
68140;SDS011;54941;52.220;104.306;2022-11-15T09:01:06;3.90;;;1.80;;
68140;SDS011;54941;52.220;104.306;2022-11-15T09:03:40;3.35;;;1.50;;
68140;SDS011;54941;52.220;104.306;2022-11-15T09:06:06;2.85;;;1.13;;
68140;SDS011;54941;52.220;104.306;2022-11-15T09:08:33;2.83;;;1.30;;
68140;SDS011;54941;52.220;104.306;2022-11-15T09:11:02;6.35;;;1.45;;
68140;SDS011;54941;52.220;104.306;2022-11-15T09:13:29;3.90;;;1.10;;
68140;SDS011;54941;52.220;104.306;2022-11-15T09:15:58;3.13;;;1.52;;
68140;SDS011;54941;52.220;104.306;2022-11-15T09:18:25;3.95;;;2.15;;
68140;SDS011;54941;52.220;104.306;2022-11-15T09:20:51;4.57;;;2.13;;
68140;SDS011;54941;52.220;104.306;2022-11-15T09:23:21;3.72;;;1.92;;
68140;SDS011;54941;52.220;104.306;2022-11-15T09:25:47;4.28;;;2.40;;
68140;SDS011;54941;52.220;104.306;2022-11-15T09:28:14;4.10;;;2.03;;
68140;SDS011;54941;52.220;104.306;2022-11-15T09:30:40;4.53;;;1.90;;
68140;SDS011;54941;52.220;104.306;2022-11-15T09:33:08;3.53;;;1.98;;
68140;SDS011;54941;52.220;104.306;2022-11-15T09:35:36;4.63;;;2.40;;
68140;SDS011;54941;52.220;104.306;2022-11-15T09:38:02;4.75;;;2.05;;
68140;SDS011;54941;52.220;104.306;2022-11-15T09:40:29;5.78;;;2.13;;
68140;SDS011;54941;52.220;104.306;2022-11-15T09:43:03;4.50;;;2.30;;
68140;SDS011;54941;52.220;104.306;2022-11-15T09:45:40;3.60;;;1.90;;
68140;SDS011;54941;52.220;104.306;2022-11-15T09:51:14;2.83;;;1.15;;
68140;SDS011;54941;52.220;104.306;2022-11-15T09:53:50;2.65;;;1.45;;
68140;SDS011;54941;52.220;104.306;2022-11-15T09:56:22;4.38;;;1.65;;
68140;SDS011;54941;52.220;104.306;2022-11-15T10:01:24;4.95;;;2.20;;
68140;SDS011;54941;52.220;104.306;2022-11-15T10:04:02;6.07;;;2.65;;
68140;SDS011;54941;52.220;104.306;2022-11-15T10:06:29;5.03;;;2.38;;
68140;SDS011;54941;52.220;104.306;2022-11-15T10:08:59;3.70;;;1.85;;
68140;SDS011;54941;52.220;104.306;2022-11-15T10:11:31;5.47;;;2.17;;
68140;SDS011;54941;52.220;104.306;2022-11-15T10:14:00;5.88;;;2.00;;
68140;SDS011;54941;52.220;104.306;2022-11-15T10:16:33;5.22;;;2.13;;
68140;SDS011;54941;52.220;104.306;2022-11-15T10:19:18;7.25;;;2.72;;
68140;SDS011;54941;52.220;104.306;2022-11-15T10:21:54;7.93;;;3.30;;
68140;SDS011;54941;52.220;104.306;2022-11-15T10:24:40;10.30;;;4.30;;
68140;SDS011;54941;52.220;104.306;2022-11-15T10:27:08;10.27;;;3.75;;
68140;SDS011;54941;52.220;104.306;2022-11-15T10:29:40;6.90;;;3.08;;
68140;SDS011;54941;52.220;104.306;2022-11-15T10:32:09;4.97;;;2.67;;
68140;SDS011;54941;52.220;104.306;2022-11-15T10:34:38;4.97;;;2.03;;
68140;SDS011;54941;52.220;104.306;2022-11-15T10:37:04;3.83;;;1.67;;
68140;SDS011;54941;52.220;104.306;2022-11-15T10:39:31;3.90;;;1.50;;
68140;SDS011;54941;52.220;104.306;2022-11-15T10:41:57;3.92;;;2.08;;
68140;SDS011;54941;52.220;104.306;2022-11-15T10:44:24;3.42;;;1.48;;
68140;SDS011;54941;52.220;104.306;2022-11-15T10:50:02;2.50;;;1.40;;
68140;SDS011;54941;52.220;104.306;2022-11-15T10:52:31;3.03;;;1.25;;
68140;SDS011;54941;52.220;104.306;2022-11-15T10:55:01;4.03;;;1.85;;
68140;SDS011;54941;52.220;104.306;2022-11-15T10:57:32;4.32;;;1.80;;
68140;SDS011;54941;52.220;104.306;2022-11-15T11:00:04;4.70;;;2.13;;
68140;SDS011;54941;52.220;104.306;2022-11-15T11:02:32;6.05;;;3.13;;
68140;SDS011;54941;52.220;104.306;2022-11-15T11:05:04;5.75;;;2.55;;
68140;SDS011;54941;52.220;104.306;2022-11-15T11:07:32;8.00;;;3.38;;
68140;SDS011;54941;52.220;104.306;2022-11-15T11:10:02;6.25;;;2.70;;
68140;SDS011;54941;52.220;104.306;2022-11-15T11:12:31;10.15;;;4.45;;
68140;SDS011;54941;52.220;104.306;2022-11-15T11:14:59;5.07;;;2.53;;
68140;SDS011;54941;52.220;104.306;2022-11-15T11:17:32;5.30;;;3.30;;
68140;SDS011;54941;52.220;104.306;2022-11-15T11:20:10;3.67;;;1.70;;
68140;SDS011;54941;52.220;104.306;2022-11-15T11:22:47;2.30;;;0.93;;
68140;SDS011;54941;52.220;104.306;2022-11-15T11:25:24;2.40;;;1.45;;
68140;SDS011;54941;52.220;104.306;2022-11-15T11:28:01;2.30;;;1.20;;
68140;SDS011;54941;52.220;104.306;2022-11-15T11:30:42;2.20;;;0.82;;
68140;SDS011;54941;52.220;104.306;2022-11-15T11:33:16;1.98;;;0.90;;
68140;SDS011;54941;52.220;104.306;2022-11-15T11:35:50;1.55;;;0.63;;
68140;SDS011;54941;52.220;104.306;2022-11-15T11:38:32;1.48;;;0.60;;
68140;SDS011;54941;52.220;104.306;2022-11-15T11:41:10;2.30;;;0.82;;
68140;SDS011;54941;52.220;104.306;2022-11-15T11:43:48;1.90;;;0.73;;
68140;SDS011;54941;52.220;104.306;2022-11-15T11:46:33;2.00;;;0.90;;
68140;SDS011;54941;52.220;104.306;2022-11-15T11:49:21;1.92;;;0.93;;
68140;SDS011;54941;52.220;104.306;2022-11-15T11:52:02;1.88;;;0.65;;
68140;SDS011;54941;52.220;104.306;2022-11-15T11:54:38;1.88;;;0.70;;
68140;SDS011;54941;52.220;104.306;2022-11-15T11:57:12;2.58;;;1.30;;
68140;SDS011;54941;52.220;104.306;2022-11-15T11:59:48;2.70;;;1.20;;
68140;SDS011;54941;52.220;104.306;2022-11-15T12:02:20;2.83;;;1.20;;
68140;SDS011;54941;52.220;104.306;2022-11-15T12:04:54;4.07;;;2.45;;
68140;SDS011;54941;52.220;104.306;2022-11-15T12:07:39;3.17;;;1.52;;
68140;SDS011;54941;52.220;104.306;2022-11-15T12:10:14;3.30;;;1.40;;
68140;SDS011;54941;52.220;104.306;2022-11-15T12:12:47;2.83;;;1.15;;
68140;SDS011;54941;52.220;104.306;2022-11-15T12:15:20;2.65;;;1.40;;
68140;SDS011;54941;52.220;104.306;2022-11-15T12:17:50;2.92;;;1.00;;
68140;SDS011;54941;52.220;104.306;2022-11-15T12:20:17;3.65;;;1.70;;
68140;SDS011;54941;52.220;104.306;2022-11-15T12:22:47;7.97;;;4.15;;
68140;SDS011;54941;52.220;104.306;2022-11-15T12:25:26;4.10;;;1.77;;
68140;SDS011;54941;52.220;104.306;2022-11-15T12:27:56;5.25;;;2.60;;
68140;SDS011;54941;52.220;104.306;2022-11-15T12:30:27;4.03;;;1.67;;
68140;SDS011;54941;52.220;104.306;2022-11-15T12:33:05;5.38;;;2.45;;
68140;SDS011;54941;52.220;104.306;2022-11-15T12:35:57;3.83;;;1.95;;
68140;SDS011;54941;52.220;104.306;2022-11-15T12:41:21;3.83;;;1.70;;
68140;SDS011;54941;52.220;104.306;2022-11-15T12:43:49;3.83;;;1.75;;
68140;SDS011;54941;52.220;104.306;2022-11-15T12:46:20;3.63;;;1.80;;
68140;SDS011;54941;52.220;104.306;2022-11-15T12:48:49;5.07;;;2.35;;
68140;SDS011;54941;52.220;104.306;2022-11-15T12:53:45;2.35;;;0.68;;
68140;SDS011;54941;52.220;104.306;2022-11-15T12:56:20;2.05;;;0.82;;
68140;SDS011;54941;52.220;104.306;2022-11-15T12:58:48;2.42;;;1.00;;
68140;SDS011;54941;52.220;104.306;2022-11-15T13:04:27;2.75;;;1.13;;
68140;SDS011;54941;52.220;104.306;2022-11-15T13:06:55;2.70;;;1.20;;
68140;SDS011;54941;52.220;104.306;2022-11-15T13:18:31;1.98;;;0.80;;
68140;SDS011;54941;52.220;104.306;2022-11-15T13:20:59;3.15;;;1.40;;
68140;SDS011;54941;52.220;104.306;2022-11-15T13:23:26;4.40;;;1.98;;
68140;SDS011;54941;52.220;104.306;2022-11-15T13:28:43;2.28;;;0.98;;
68140;SDS011;54941;52.220;104.306;2022-11-15T13:33:58;2.53;;;1.13;;
68140;SDS011;54941;52.220;104.306;2022-11-15T13:38:54;1.58;;;0.82;;
68140;SDS011;54941;52.220;104.306;2022-11-15T13:41:22;1.90;;;0.90;;
68140;SDS011;54941;52.220;104.306;2022-11-15T13:43:52;2.20;;;0.80;;
68140;SDS011;54941;52.220;104.306;2022-11-15T13:46:19;2.13;;;1.00;;
68140;SDS011;54941;52.220;104.306;2022-11-15T13:48:50;2.13;;;0.88;;
68140;SDS011;54941;52.220;104.306;2022-11-15T13:51:19;2.30;;;0.80;;
68140;SDS011;54941;52.220;104.306;2022-11-15T13:53:50;2.45;;;1.00;;
68140;SDS011;54941;52.220;104.306;2022-11-15T13:56:19;1.98;;;0.80;;
68140;SDS011;54941;52.220;104.306;2022-11-15T13:58:47;2.28;;;1.00;;
68140;SDS011;54941;52.220;104.306;2022-11-15T14:01:16;2.58;;;0.80;;
68140;SDS011;54941;52.220;104.306;2022-11-15T14:03:48;1.80;;;0.70;;
68140;SDS011;54941;52.220;104.306;2022-11-15T14:06:18;2.17;;;0.88;;
68140;SDS011;54941;52.220;104.306;2022-11-15T14:08:58;1.92;;;0.73;;
68140;SDS011;54941;52.220;104.306;2022-11-15T14:11:27;1.95;;;0.90;;
68140;SDS011;54941;52.220;104.306;2022-11-15T14:14:03;2.22;;;1.00;;
68140;SDS011;54941;52.220;104.306;2022-11-15T14:16:39;2.17;;;0.77;;
68140;SDS011;54941;52.220;104.306;2022-11-15T14:21:35;2.15;;;0.90;;
68140;SDS011;54941;52.220;104.306;2022-11-15T14:24:13;2.08;;;0.88;;
68140;SDS011;54941;52.220;104.306;2022-11-15T14:26:40;2.13;;;1.05;;
68140;SDS011;54941;52.220;104.306;2022-11-15T14:29:23;3.05;;;1.40;;
68140;SDS011;54941;52.220;104.306;2022-11-15T14:31:52;2.15;;;0.80;;
68140;SDS011;54941;52.220;104.306;2022-11-15T14:34:18;2.65;;;1.05;;
68140;SDS011;54941;52.220;104.306;2022-11-15T14:36:45;2.38;;;0.70;;
68140;SDS011;54941;52.220;104.306;2022-11-15T14:39:11;1.63;;;0.50;;
68140;SDS011;54941;52.220;104.306;2022-11-15T14:41:38;1.73;;;0.60;;
68140;SDS011;54941;52.220;104.306;2022-11-15T14:44:04;1.73;;;0.68;;
68140;SDS011;54941;52.220;104.306;2022-11-15T14:46:32;1.70;;;0.75;;
68140;SDS011;54941;52.220;104.306;2022-11-15T14:49:00;1.60;;;0.60;;
68140;SDS011;54941;52.220;104.306;2022-11-15T14:51:26;2.42;;;0.70;;
68140;SDS011;54941;52.220;104.306;2022-11-15T14:53:52;1.67;;;0.50;;
68140;SDS011;54941;52.220;104.306;2022-11-15T14:56:19;1.75;;;0.70;;
68140;SDS011;54941;52.220;104.306;2022-11-15T14:58:45;4.47;;;1.95;;
68140;SDS011;54941;52.220;104.306;2022-11-15T15:01:12;1.42;;;0.50;;
68140;SDS011;54941;52.220;104.306;2022-11-15T15:03:42;2.13;;;1.05;;
68140;SDS011;54941;52.220;104.306;2022-11-15T15:06:09;2.53;;;0.90;;
68140;SDS011;54941;52.220;104.306;2022-11-15T15:08:36;2.67;;;0.75;;
68140;SDS011;54941;52.220;104.306;2022-11-15T15:11:03;1.65;;;0.70;;
68140;SDS011;54941;52.220;104.306;2022-11-15T15:13:36;1.67;;;0.55;;
68140;SDS011;54941;52.220;104.306;2022-11-15T15:16:02;1.58;;;0.50;;
68140;SDS011;54941;52.220;104.306;2022-11-15T15:18:29;1.83;;;0.77;;
68140;SDS011;54941;52.220;104.306;2022-11-15T15:20:55;1.40;;;0.60;;
68140;SDS011;54941;52.220;104.306;2022-11-15T15:23:24;1.30;;;0.60;;
68140;SDS011;54941;52.220;104.306;2022-11-15T15:25:51;1.55;;;0.52;;
68140;SDS011;54941;52.220;104.306;2022-11-15T15:28:17;1.65;;;0.80;;
68140;SDS011;54941;52.220;104.306;2022-11-15T15:30:43;1.65;;;0.60;;
68140;SDS011;54941;52.220;104.306;2022-11-15T15:33:10;2.25;;;0.50;;